createdAt,value
2023-05-19T00:00:21.679Z,29.18
2023-05-19T00:01:21.676Z,29.17
2023-05-19T00:02:21.700Z,29.20
2023-05-19T00:03:21.753Z,29.20
2023-05-19T00:04:21.729Z,29.18
2023-05-19T00:05:21.795Z,29.18
2023-05-19T00:06:21.870Z,29.18
2023-05-19T00:07:21.846Z,29.17
2023-05-19T00:08:21.892Z,29.15
2023-05-19T00:09:21.903Z,29.15
2023-05-19T00:10:21.904Z,29.21
2023-05-19T00:11:21.906Z,29.18
2023-05-19T00:12:21.914Z,29.20
2023-05-19T00:13:21.975Z,29.24
2023-05-19T00:14:22.007Z,29.21
2023-05-19T00:15:22.058Z,29.20
2023-05-19T00:16:22.181Z,29.17
2023-05-19T00:17:22.164Z,29.18
2023-05-19T00:18:22.194Z,29.23
2023-05-19T00:19:22.415Z,29.15
2023-05-19T00:20:22.292Z,29.20
2023-05-19T00:21:22.357Z,29.21
2023-05-19T00:22:22.399Z,29.22
2023-05-19T00:23:22.456Z,29.27
2023-05-19T00:24:22.490Z,29.20
2023-05-19T00:25:22.551Z,29.21
2023-05-19T00:26:22.580Z,29.24
2023-05-19T00:27:22.632Z,29.24
2023-05-19T00:28:22.636Z,29.21
2023-05-19T00:29:22.667Z,29.24
2023-05-19T00:30:22.634Z,29.18
2023-05-19T00:31:22.667Z,29.21
2023-05-19T00:32:22.638Z,29.29
2023-05-19T00:33:22.619Z,29.24
2023-05-19T00:34:22.669Z,29.21
2023-05-19T00:35:22.615Z,29.25
2023-05-19T00:36:22.772Z,29.28
2023-05-19T00:37:22.604Z,29.28
2023-05-19T00:38:22.617Z,29.25
2023-05-19T00:39:22.605Z,29.25
2023-05-19T00:40:22.599Z,29.29
2023-05-19T00:41:22.617Z,29.28
2023-05-19T00:42:22.595Z,29.24
2023-05-19T00:43:22.600Z,29.25
2023-05-19T00:44:22.598Z,29.26
2023-05-19T00:45:22.586Z,29.28
2023-05-19T00:46:22.627Z,29.31
2023-05-19T00:47:22.590Z,29.32
2023-05-19T00:48:22.570Z,29.27
2023-05-19T00:49:22.571Z,29.34
2023-05-19T00:50:22.575Z,29.28
2023-05-19T00:51:22.574Z,29.31
2023-05-19T00:52:22.623Z,29.29
2023-05-19T00:53:22.671Z,29.28
2023-05-19T00:54:22.731Z,29.29
2023-05-19T00:55:22.772Z,29.26
2023-05-19T00:56:22.825Z,29.25
2023-05-19T00:57:22.839Z,29.26
2023-05-19T00:58:22.904Z,29.31
2023-05-19T00:59:22.944Z,29.25
2023-05-19T01:00:22.990Z,29.32
2023-05-19T01:01:23.083Z,29.37
2023-05-19T01:02:23.116Z,29.36
2023-05-19T01:03:23.087Z,29.29
2023-05-19T01:04:23.032Z,29.37
2023-05-19T01:05:23.048Z,29.30
2023-05-19T01:06:23.036Z,29.33
2023-05-19T01:07:23.074Z,29.35
2023-05-19T01:08:23.116Z,29.36
2023-05-19T01:09:23.183Z,29.40
2023-05-19T01:10:23.224Z,29.36
2023-05-19T01:11:23.294Z,29.35
2023-05-19T01:12:23.312Z,29.36
2023-05-19T01:13:23.405Z,29.36
2023-05-19T01:14:23.404Z,29.36
2023-05-19T01:15:23.469Z,29.39
2023-05-19T01:16:23.405Z,29.36
2023-05-19T01:17:23.460Z,29.42
2023-05-19T01:18:23.520Z,29.40
2023-05-19T01:19:23.468Z,29.36
2023-05-19T01:20:23.402Z,29.42
2023-05-19T01:21:23.391Z,29.43
2023-05-19T01:22:23.401Z,29.46
2023-05-19T01:23:23.407Z,29.43
2023-05-19T01:24:23.416Z,29.39
2023-05-19T01:25:23.460Z,29.40
2023-05-19T01:26:23.411Z,29.49
2023-05-19T01:27:23.425Z,29.43
2023-05-19T01:28:23.414Z,29.44
2023-05-19T01:29:23.424Z,29.42
2023-05-19T01:30:23.420Z,29.46
2023-05-19T01:31:23.449Z,29.44
2023-05-19T01:32:23.497Z,29.49
2023-05-19T01:33:23.502Z,29.44
2023-05-19T01:34:23.541Z,29.42
2023-05-19T01:35:23.509Z,29.46
2023-05-19T01:36:23.509Z,29.49
2023-05-19T01:37:23.504Z,29.47
2023-05-19T01:38:23.507Z,29.42
2023-05-19T01:39:23.525Z,29.43
2023-05-19T01:40:23.551Z,29.47
2023-05-19T01:41:23.565Z,29.49
2023-05-19T01:42:23.681Z,29.52
2023-05-19T01:43:23.586Z,29.57
2023-05-19T01:44:23.637Z,29.44
2023-05-19T01:45:23.672Z,29.57
2023-05-19T01:46:23.730Z,29.52
2023-05-19T01:47:23.716Z,29.52
2023-05-19T01:48:23.729Z,29.50
2023-05-19T01:49:23.800Z,29.59
2023-05-19T01:50:23.845Z,29.53
2023-05-19T01:51:23.908Z,29.53
2023-05-19T01:52:23.939Z,29.54
2023-05-19T01:53:24.002Z,29.50
2023-05-19T01:54:24.040Z,29.55
2023-05-19T01:55:24.049Z,29.57
2023-05-19T01:56:24.051Z,29.60
2023-05-19T01:57:24.043Z,29.60
2023-05-19T01:58:24.145Z,29.51
2023-05-19T01:59:24.061Z,29.57
2023-05-19T02:00:24.066Z,29.61
2023-05-19T02:01:24.083Z,29.60
2023-05-19T02:02:24.098Z,29.57
2023-05-19T02:03:24.103Z,29.55
2023-05-19T02:04:24.164Z,29.63
2023-05-19T02:05:24.095Z,29.60
2023-05-19T02:06:24.081Z,29.65
2023-05-19T02:07:24.129Z,29.61
2023-05-19T02:08:24.193Z,29.61
2023-05-19T02:09:24.209Z,29.59
2023-05-19T02:10:24.297Z,29.57
2023-05-19T02:11:24.492Z,29.63
2023-05-19T02:12:24.349Z,29.58
2023-05-19T02:13:24.369Z,29.61
2023-05-19T02:14:24.358Z,29.67
2023-05-19T02:15:24.363Z,29.60
2023-05-19T02:16:24.498Z,29.63
2023-05-19T02:17:24.375Z,29.65
2023-05-19T02:18:24.380Z,29.62
2023-05-19T02:19:24.483Z,29.61
2023-05-19T02:20:24.357Z,29.61
2023-05-19T02:21:24.375Z,29.71
2023-05-19T02:22:24.361Z,29.68
2023-05-19T02:23:24.388Z,29.60
2023-05-19T02:24:24.386Z,29.61
2023-05-19T02:25:24.416Z,29.62
2023-05-19T02:26:24.437Z,29.68
2023-05-19T02:27:24.421Z,29.68
2023-05-19T02:28:24.398Z,29.65
2023-05-19T02:29:24.501Z,29.70
2023-05-19T02:30:24.371Z,29.64
2023-05-19T02:31:24.426Z,29.67
2023-05-19T02:32:24.386Z,29.67
2023-05-19T02:33:24.419Z,29.68
2023-05-19T02:34:24.426Z,29.70
2023-05-19T02:35:24.415Z,29.67
2023-05-19T02:36:24.419Z,29.64
2023-05-19T02:37:24.418Z,29.72
2023-05-19T02:38:24.397Z,29.67
2023-05-19T02:39:24.427Z,29.62
2023-05-19T02:40:24.433Z,29.71
2023-05-19T02:41:24.473Z,29.71
2023-05-19T02:42:24.505Z,29.67
2023-05-19T02:43:24.555Z,29.71
2023-05-19T02:44:24.591Z,29.72
2023-05-19T02:45:24.695Z,29.64
2023-05-19T02:46:24.770Z,29.74
2023-05-19T02:47:24.807Z,29.69
2023-05-19T02:48:24.824Z,29.67
2023-05-19T02:49:24.839Z,29.74
2023-05-19T02:50:24.896Z,29.67
2023-05-19T02:51:24.942Z,29.71
2023-05-19T02:52:24.994Z,29.76
2023-05-19T02:53:25.034Z,29.75
2023-05-19T02:54:25.090Z,29.80
2023-05-19T02:55:25.159Z,29.77
2023-05-19T02:56:25.207Z,29.74
2023-05-19T02:57:25.255Z,29.82
2023-05-19T02:58:25.326Z,29.74
2023-05-19T02:59:25.791Z,29.75
2023-05-19T03:00:25.401Z,29.75
2023-05-19T03:01:25.506Z,29.76
2023-05-19T03:02:25.567Z,29.76
2023-05-19T03:03:25.666Z,29.74
2023-05-19T03:04:25.647Z,29.70
2023-05-19T03:05:25.704Z,29.76
2023-05-19T03:06:25.777Z,29.75
2023-05-19T03:07:25.811Z,29.77
2023-05-19T03:08:25.861Z,29.78
2023-05-19T03:09:25.861Z,29.76
2023-05-19T03:10:25.873Z,29.74
2023-05-19T03:11:25.888Z,29.75
2023-05-19T03:12:25.939Z,29.73
2023-05-19T03:13:25.977Z,29.76
2023-05-19T03:14:26.023Z,29.80
2023-05-19T03:15:26.091Z,29.80
2023-05-19T03:16:26.224Z,29.78
2023-05-19T03:17:26.264Z,29.79
2023-05-19T03:18:26.369Z,29.79
2023-05-19T03:19:26.447Z,29.80
2023-05-19T03:20:26.391Z,29.82
2023-05-19T03:21:26.464Z,29.76
2023-05-19T03:22:26.501Z,29.85
2023-05-19T03:23:26.622Z,29.85
2023-05-19T03:24:26.620Z,29.83
2023-05-19T03:25:26.664Z,29.79
2023-05-19T03:26:26.681Z,29.82
2023-05-19T03:27:26.658Z,29.85
2023-05-19T03:28:26.712Z,29.86
2023-05-19T03:29:26.727Z,29.82
2023-05-19T03:30:26.749Z,29.89
2023-05-19T03:31:26.869Z,29.83
2023-05-19T03:32:26.873Z,29.83
2023-05-19T03:33:26.992Z,29.86
2023-05-19T03:34:26.830Z,29.90
2023-05-19T03:35:26.846Z,29.88
2023-05-19T03:36:26.843Z,29.82
2023-05-19T03:37:26.836Z,29.85
2023-05-19T03:38:26.860Z,29.85
2023-05-19T03:39:26.849Z,29.85
2023-05-19T03:40:26.887Z,29.83
2023-05-19T03:41:27.177Z,29.85
2023-05-19T03:42:26.880Z,29.85
2023-05-19T03:43:26.905Z,29.82
2023-05-19T03:44:26.952Z,29.82
2023-05-19T03:45:26.997Z,29.86
2023-05-19T03:46:27.102Z,29.93
2023-05-19T03:47:27.128Z,29.92
2023-05-19T03:48:27.149Z,29.88
2023-05-19T03:49:27.183Z,29.85
2023-05-19T03:50:27.261Z,29.90
2023-05-19T03:51:27.319Z,29.85
2023-05-19T03:52:27.363Z,29.86
2023-05-19T03:53:27.428Z,29.82
2023-05-19T03:54:27.477Z,29.89
2023-05-19T03:55:27.534Z,29.90
2023-05-19T03:56:27.529Z,29.92
2023-05-19T03:57:27.536Z,29.89
2023-05-19T03:58:27.544Z,29.88
2023-05-19T03:59:27.560Z,29.83
2023-05-19T04:00:27.568Z,29.88
2023-05-19T04:01:27.572Z,29.82
2023-05-19T04:02:27.637Z,29.91
2023-05-19T04:03:27.621Z,29.88
2023-05-19T04:04:27.681Z,29.86
2023-05-19T04:05:27.807Z,29.89
2023-05-19T04:06:27.722Z,29.85
2023-05-19T04:07:27.741Z,29.85
2023-05-19T04:08:27.789Z,29.83
2023-05-19T04:09:27.689Z,29.83
2023-05-19T04:10:27.745Z,29.82
2023-05-19T04:11:27.801Z,29.87
2023-05-19T04:12:27.848Z,29.82
2023-05-19T04:13:27.893Z,29.82
2023-05-19T04:14:27.934Z,29.84
2023-05-19T04:15:27.984Z,29.78
2023-05-19T04:16:28.023Z,29.85
2023-05-19T04:17:28.012Z,29.80
2023-05-19T04:18:29.145Z,29.85
2023-05-19T04:19:28.152Z,29.78
2023-05-19T04:20:28.004Z,29.78
2023-05-19T04:21:28.091Z,29.78
2023-05-19T04:22:28.013Z,29.78
2023-05-19T04:23:28.011Z,29.74
2023-05-19T04:24:28.015Z,29.73
2023-05-19T04:25:28.040Z,29.80
2023-05-19T04:26:28.147Z,29.75
2023-05-19T04:27:28.105Z,29.75
2023-05-19T04:28:28.137Z,29.77
2023-05-19T04:29:28.326Z,29.80
2023-05-19T04:30:28.195Z,29.71
2023-05-19T04:31:28.275Z,29.75
2023-05-19T04:32:28.259Z,29.78
2023-05-19T04:33:28.253Z,29.72
2023-05-19T04:34:28.244Z,29.69
2023-05-19T04:35:28.255Z,29.66
2023-05-19T04:36:28.256Z,29.64
2023-05-19T04:37:28.248Z,29.72
2023-05-19T04:38:28.250Z,29.71
2023-05-19T04:39:28.300Z,29.64
2023-05-19T04:40:28.346Z,29.67
2023-05-19T04:41:28.400Z,29.71
2023-05-19T04:42:28.368Z,29.66
2023-05-19T04:43:28.368Z,29.63
2023-05-19T04:44:28.341Z,29.63
2023-05-19T04:45:28.484Z,29.58
2023-05-19T04:46:28.624Z,29.58
2023-05-19T04:47:28.499Z,29.52
2023-05-19T04:48:28.454Z,29.50
2023-05-19T04:49:28.481Z,29.47
2023-05-19T04:50:28.511Z,29.47
2023-05-19T04:51:30.459Z,29.38
2023-05-19T04:52:28.588Z,29.20
2023-05-19T04:53:28.670Z,29.14
2023-05-19T04:54:28.718Z,29.06
2023-05-19T04:55:28.778Z,28.95
2023-05-19T04:56:28.855Z,28.90
2023-05-19T04:57:28.857Z,28.87
2023-05-19T04:58:28.856Z,28.78
2023-05-19T04:59:28.880Z,28.73
2023-05-19T05:00:28.880Z,28.53
2023-05-19T05:01:28.929Z,28.60
2023-05-19T05:02:28.936Z,28.64
2023-05-19T05:03:28.950Z,28.72
2023-05-19T05:04:28.875Z,28.73
2023-05-19T05:05:28.892Z,28.84
2023-05-19T05:06:28.890Z,28.87
2023-05-19T05:07:29.760Z,28.92
2023-05-19T05:08:28.916Z,28.96
2023-05-19T05:09:28.886Z,28.93
2023-05-19T05:10:28.889Z,29.04
2023-05-19T05:11:28.891Z,29.14
2023-05-19T05:12:28.884Z,29.14
2023-05-19T05:13:28.883Z,29.19
2023-05-19T05:14:28.866Z,29.18
2023-05-19T05:15:28.883Z,29.23
2023-05-19T05:16:28.915Z,29.29
2023-05-19T05:17:28.906Z,29.23
2023-05-19T05:18:28.840Z,29.28
2023-05-19T05:19:28.945Z,29.31
2023-05-19T05:20:28.838Z,29.30
2023-05-19T05:21:28.806Z,29.28
2023-05-19T05:22:28.814Z,29.37
2023-05-19T05:23:28.802Z,29.29
2023-05-19T05:24:28.801Z,29.37
2023-05-19T05:25:28.801Z,29.34
2023-05-19T05:26:28.805Z,29.33
2023-05-19T05:27:28.798Z,29.36
2023-05-19T05:28:28.791Z,29.36
2023-05-19T05:29:28.755Z,29.36
2023-05-19T05:30:28.748Z,29.36
2023-05-19T05:31:28.746Z,29.32
2023-05-19T05:32:28.858Z,29.32
2023-05-19T05:33:28.786Z,29.28
2023-05-19T05:34:28.739Z,29.27
2023-05-19T05:35:28.747Z,29.22
2023-05-19T05:36:28.714Z,29.11
2023-05-19T05:37:28.714Z,29.07
2023-05-19T05:38:28.714Z,29.01
2023-05-19T05:39:28.709Z,28.93
2023-05-19T05:40:28.683Z,28.89
2023-05-19T05:41:28.700Z,28.87
2023-05-19T05:42:29.783Z,28.83
2023-05-19T05:43:28.675Z,28.87
2023-05-19T05:44:28.676Z,28.87
2023-05-19T05:45:28.651Z,28.83
2023-05-19T05:46:28.764Z,28.87
2023-05-19T05:47:28.680Z,28.87
2023-05-19T05:48:28.649Z,28.86
2023-05-19T05:49:28.637Z,28.87
2023-05-19T05:50:28.626Z,28.91
2023-05-19T05:51:28.667Z,28.90
2023-05-19T05:52:28.621Z,28.93
2023-05-19T05:53:28.609Z,28.94
2023-05-19T05:54:28.613Z,28.85
2023-05-19T05:55:28.592Z,28.90
2023-05-19T05:56:28.582Z,28.82
2023-05-19T05:57:28.582Z,28.79
2023-05-19T05:58:28.559Z,28.80
2023-05-19T05:59:28.547Z,28.80
2023-05-19T06:00:28.544Z,28.82
2023-05-19T06:01:28.539Z,28.85
2023-05-19T06:02:28.643Z,28.86
2023-05-19T06:03:28.604Z,28.85
2023-05-19T06:04:28.544Z,28.90
2023-05-19T06:05:28.571Z,28.91
2023-05-19T06:06:28.556Z,28.95
2023-05-19T06:07:28.568Z,28.87
2023-05-19T06:08:28.548Z,28.95
2023-05-19T06:09:28.568Z,28.95
2023-05-19T06:10:28.560Z,28.94
2023-05-19T06:11:28.598Z,28.95
2023-05-19T06:12:28.569Z,28.97
2023-05-19T06:13:28.579Z,28.98
2023-05-19T06:14:28.575Z,28.94
2023-05-19T06:15:28.690Z,28.88
2023-05-19T06:16:28.604Z,28.77
2023-05-19T06:17:28.657Z,28.80
2023-05-19T06:18:28.726Z,28.73
2023-05-19T06:19:28.758Z,28.61
2023-05-19T06:20:28.770Z,28.56
2023-05-19T06:21:28.785Z,28.48
2023-05-19T06:22:28.808Z,28.38
2023-05-19T06:23:28.913Z,28.35
2023-05-19T06:24:28.949Z,28.37
2023-05-19T06:25:29.004Z,28.38
2023-05-19T06:26:29.070Z,28.36
2023-05-19T06:27:29.108Z,28.38
2023-05-19T06:28:29.176Z,28.44
2023-05-19T06:29:29.254Z,28.51
2023-05-19T06:30:29.377Z,28.48
2023-05-19T06:31:29.444Z,28.51
2023-05-19T06:32:29.468Z,28.51
2023-05-19T06:33:29.491Z,28.52
2023-05-19T06:34:29.462Z,28.55
2023-05-19T06:35:29.467Z,28.52
2023-05-19T06:36:29.632Z,28.55
2023-05-19T06:37:29.546Z,28.53
2023-05-19T06:38:29.531Z,28.51
2023-05-19T06:39:29.633Z,28.51
2023-05-19T06:40:29.685Z,28.52
2023-05-19T06:41:29.581Z,28.45
2023-05-19T06:42:29.607Z,28.35
2023-05-19T06:43:29.591Z,28.36
2023-05-19T06:44:29.577Z,28.30
2023-05-19T06:45:29.592Z,28.21
2023-05-19T06:46:29.634Z,28.19
2023-05-19T06:47:29.613Z,28.18
2023-05-19T06:48:29.601Z,28.16
2023-05-19T06:49:29.592Z,28.14
2023-05-19T06:50:29.607Z,28.17
2023-05-19T06:51:29.587Z,28.12
2023-05-19T06:52:29.593Z,28.12
2023-05-19T06:53:29.660Z,28.19
2023-05-19T06:54:29.740Z,28.22
2023-05-19T06:55:29.671Z,28.24
2023-05-19T06:56:29.713Z,28.30
2023-05-19T06:57:29.760Z,28.35
2023-05-19T06:58:29.820Z,28.43
2023-05-19T06:59:29.890Z,28.42
2023-05-19T07:00:29.948Z,28.47
2023-05-19T07:01:30.040Z,28.47
2023-05-19T07:02:30.125Z,28.51
2023-05-19T07:03:30.151Z,28.53
2023-05-19T07:04:30.139Z,28.52
2023-05-19T07:05:30.180Z,28.51
2023-05-19T07:06:30.189Z,28.50
2023-05-19T07:07:30.203Z,28.47
2023-05-19T07:08:30.213Z,28.49
2023-05-19T07:09:30.218Z,28.43
2023-05-19T07:10:30.328Z,28.45
2023-05-19T07:11:30.237Z,28.40
2023-05-19T07:12:30.300Z,28.41
2023-05-19T07:13:30.380Z,28.43
2023-05-19T07:14:30.375Z,28.43
2023-05-19T07:15:30.432Z,28.40
2023-05-19T07:16:30.501Z,28.34
2023-05-19T07:17:30.547Z,28.33
2023-05-19T07:18:30.547Z,28.33
2023-05-19T07:19:30.707Z,28.34
2023-05-19T07:20:30.863Z,28.29
2023-05-19T07:21:30.653Z,28.29
2023-05-19T07:22:30.690Z,28.29
2023-05-19T07:23:30.727Z,28.31
2023-05-19T07:24:30.718Z,28.26
2023-05-19T07:25:30.722Z,28.29
2023-05-19T07:26:30.721Z,28.34
2023-05-19T07:27:30.715Z,28.37
2023-05-19T07:28:30.714Z,28.33
2023-05-19T07:29:30.823Z,28.33
2023-05-19T07:30:30.989Z,28.31
2023-05-19T07:31:30.794Z,28.32
2023-05-19T07:32:30.855Z,28.31
2023-05-19T07:33:30.861Z,28.29
2023-05-19T07:34:30.891Z,28.24
2023-05-19T07:35:30.883Z,28.13
2023-05-19T07:36:30.894Z,28.15
2023-05-19T07:37:30.901Z,28.12
2023-05-19T07:38:30.921Z,28.12
2023-05-19T07:39:30.959Z,28.08
2023-05-19T07:40:31.112Z,28.05
2023-05-19T07:41:31.069Z,28.06
2023-05-19T07:42:31.139Z,27.98
2023-05-19T07:43:31.186Z,27.93
2023-05-19T07:44:31.296Z,27.88
2023-05-19T07:45:31.413Z,27.89
2023-05-19T07:46:31.566Z,27.90
2023-05-19T07:47:31.462Z,27.91
2023-05-19T07:48:31.496Z,27.88
2023-05-19T07:49:31.596Z,27.87
2023-05-19T07:50:31.883Z,27.83
2023-05-19T07:51:31.681Z,27.84
2023-05-19T07:52:31.725Z,27.72
2023-05-19T07:53:31.797Z,27.69
2023-05-19T07:54:31.833Z,27.58
2023-05-19T07:55:31.889Z,27.57
2023-05-19T07:56:31.939Z,27.64
2023-05-19T07:57:32.004Z,27.55
2023-05-19T07:58:32.084Z,27.57
2023-05-19T07:59:32.077Z,27.54
2023-05-19T08:00:32.196Z,27.49
2023-05-19T08:01:32.097Z,27.49
2023-05-19T08:02:32.198Z,27.43
2023-05-19T08:03:32.360Z,27.35
2023-05-19T08:04:32.208Z,27.33
2023-05-19T08:05:32.210Z,27.30
2023-05-19T08:06:32.350Z,27.27
2023-05-19T08:07:32.312Z,27.20
2023-05-19T08:08:32.360Z,27.18
2023-05-19T08:09:32.368Z,27.10
2023-05-19T08:10:32.586Z,27.08
2023-05-19T08:11:32.499Z,26.96
2023-05-19T08:12:32.504Z,27.02
2023-05-19T08:13:32.498Z,26.88
2023-05-19T08:14:32.520Z,26.87
2023-05-19T08:15:32.737Z,26.84
2023-05-19T08:16:32.661Z,26.84
2023-05-19T08:17:32.577Z,26.91
2023-05-19T08:18:32.592Z,26.90
2023-05-19T08:19:32.597Z,26.82
2023-05-19T08:20:32.862Z,26.77
2023-05-19T08:21:32.670Z,26.68
2023-05-19T08:22:32.679Z,26.72
2023-05-19T08:23:32.694Z,26.79
2023-05-19T08:24:32.713Z,27.12
2023-05-19T08:25:32.753Z,27.21
2023-05-19T08:26:33.101Z,27.41
2023-05-19T08:27:32.838Z,27.51
2023-05-19T08:28:32.884Z,27.68
2023-05-19T08:29:32.954Z,27.80
2023-05-19T08:30:33.236Z,27.89
2023-05-19T08:31:33.137Z,28.00
2023-05-19T08:32:33.186Z,28.01
2023-05-19T08:33:33.187Z,28.13
2023-05-19T08:34:33.239Z,28.19
2023-05-19T08:35:33.276Z,28.20
2023-05-19T08:36:33.348Z,28.27
2023-05-19T08:37:34.253Z,28.38
2023-05-19T08:38:33.529Z,28.38
2023-05-19T08:39:33.499Z,28.39
2023-05-19T08:40:33.917Z,28.50
2023-05-19T08:41:33.636Z,28.50
2023-05-19T08:42:33.712Z,28.51
2023-05-19T08:43:33.740Z,28.52
2023-05-19T08:44:33.893Z,28.55
2023-05-19T08:45:34.117Z,28.61
2023-05-19T08:46:34.024Z,28.63
2023-05-19T08:47:33.925Z,28.63
2023-05-19T08:48:33.922Z,28.69
2023-05-19T08:49:33.947Z,28.67
2023-05-19T08:50:34.203Z,28.77
2023-05-19T08:51:34.014Z,28.67
2023-05-19T08:52:34.040Z,28.75
2023-05-19T08:53:34.733Z,28.81
2023-05-19T08:54:34.104Z,28.79
2023-05-19T08:55:34.626Z,28.74
2023-05-19T08:56:34.132Z,28.79
2023-05-19T08:57:34.197Z,28.78
2023-05-19T08:58:34.257Z,28.81
2023-05-19T08:59:34.239Z,28.78
2023-05-19T09:00:34.447Z,28.84
2023-05-19T09:01:34.521Z,28.86
2023-05-19T09:02:34.304Z,28.83
2023-05-19T09:03:34.416Z,28.88
2023-05-19T09:04:34.424Z,28.69
2023-05-19T09:05:34.754Z,28.48
2023-05-19T09:06:34.485Z,28.39
2023-05-19T09:07:34.494Z,28.17
2023-05-19T09:08:34.551Z,28.05
2023-05-19T09:09:34.733Z,27.92
2023-05-19T09:10:34.657Z,27.78
2023-05-19T09:11:34.724Z,27.69
2023-05-19T09:12:34.740Z,27.65
2023-05-19T09:13:34.817Z,27.50
2023-05-19T09:14:34.870Z,27.50
2023-05-19T09:15:35.220Z,27.39
2023-05-19T09:16:35.075Z,27.35
2023-05-19T09:17:35.072Z,27.31
2023-05-19T09:18:35.084Z,27.25
2023-05-19T09:19:35.213Z,27.26
2023-05-19T09:20:35.130Z,27.26
2023-05-19T09:21:35.155Z,27.26
2023-05-19T09:22:35.163Z,27.26
2023-05-19T09:23:35.159Z,27.26
2023-05-19T09:24:35.169Z,27.23
2023-05-19T09:25:35.455Z,27.24
2023-05-19T09:26:35.214Z,27.17
2023-05-19T09:27:35.209Z,27.15
2023-05-19T09:28:35.234Z,27.17
2023-05-19T09:29:35.261Z,27.15
2023-05-19T09:30:35.247Z,27.20
2023-05-19T09:31:35.329Z,27.14
2023-05-19T09:32:35.286Z,27.13
2023-05-19T09:33:35.285Z,27.10
2023-05-19T09:34:35.294Z,27.14
2023-05-19T09:35:35.439Z,27.16
2023-05-19T09:36:35.313Z,27.15
2023-05-19T09:37:35.285Z,27.09
2023-05-19T09:38:35.298Z,27.10
2023-05-19T09:39:35.322Z,27.16
2023-05-19T09:40:35.370Z,27.16
2023-05-19T09:41:35.434Z,27.17
2023-05-19T09:42:35.472Z,27.16
2023-05-19T09:43:35.550Z,27.14
2023-05-19T09:44:35.558Z,27.15
2023-05-19T09:45:35.556Z,27.01
2023-05-19T09:46:35.751Z,26.97
2023-05-19T09:47:35.580Z,26.96
2023-05-19T09:48:35.570Z,26.90
2023-05-19T09:49:35.567Z,26.87
2023-05-19T09:50:35.598Z,27.06
2023-05-19T09:51:35.598Z,27.27
2023-05-19T09:52:35.626Z,27.43
2023-05-19T09:53:35.625Z,27.53
2023-05-19T09:54:35.662Z,27.66
2023-05-19T09:55:35.691Z,27.77
2023-05-19T09:56:35.690Z,27.83
2023-05-19T09:57:35.774Z,27.94
2023-05-19T09:58:35.763Z,28.03
2023-05-19T09:59:35.831Z,28.12
2023-05-19T10:00:35.872Z,28.18
2023-05-19T10:01:35.969Z,28.29
2023-05-19T10:02:35.995Z,28.35
2023-05-19T10:03:35.967Z,28.37
2023-05-19T10:04:35.990Z,28.42
2023-05-19T10:05:36.164Z,28.48
2023-05-19T10:06:35.995Z,28.45
2023-05-19T10:07:36.051Z,28.53
2023-05-19T10:08:36.122Z,28.53
2023-05-19T10:09:36.164Z,28.52
2023-05-19T10:10:36.225Z,28.60
2023-05-19T10:11:36.293Z,28.64
2023-05-19T10:12:36.321Z,28.64
2023-05-19T10:13:36.387Z,28.61
2023-05-19T10:14:36.534Z,28.65
2023-05-19T10:15:46.689Z,28.67
2023-05-19T10:16:37.601Z,28.71
2023-05-19T10:17:36.497Z,28.72
2023-05-19T10:18:37.663Z,28.75
2023-05-19T10:19:36.516Z,28.69
2023-05-19T10:20:36.479Z,28.75
2023-05-19T10:21:36.466Z,28.79
2023-05-19T10:22:36.465Z,28.78
2023-05-19T10:23:36.446Z,28.79
2023-05-19T10:24:36.436Z,28.82
2023-05-19T10:25:36.442Z,28.87
2023-05-19T10:26:36.455Z,28.84
2023-05-19T10:27:36.416Z,28.86
2023-05-19T10:28:36.421Z,28.88
2023-05-19T10:29:36.479Z,28.91
2023-05-19T10:30:36.397Z,28.87
2023-05-19T10:31:36.431Z,28.94
2023-05-19T10:32:36.425Z,28.91
2023-05-19T10:33:36.377Z,28.92
2023-05-19T10:34:36.398Z,28.94
2023-05-19T10:35:36.612Z,28.91
2023-05-19T10:36:36.363Z,28.84
2023-05-19T10:37:36.354Z,28.69
2023-05-19T10:38:36.357Z,28.60
2023-05-19T10:39:36.333Z,28.49
2023-05-19T10:40:36.345Z,28.42
2023-05-19T10:41:36.352Z,28.38
2023-05-19T10:42:36.314Z,28.29
2023-05-19T10:43:36.308Z,28.22
2023-05-19T10:44:36.310Z,28.16
2023-05-19T10:45:36.386Z,28.15
2023-05-19T10:46:36.326Z,28.11
2023-05-19T10:47:36.301Z,28.03
2023-05-19T10:48:36.297Z,28.04
2023-05-19T10:49:36.293Z,27.98
2023-05-19T10:50:36.266Z,27.99
2023-05-19T10:51:36.265Z,27.98
2023-05-19T10:52:36.265Z,27.91
2023-05-19T10:53:36.247Z,27.85
2023-05-19T10:54:36.242Z,27.83
2023-05-19T10:55:36.238Z,27.79
2023-05-19T10:56:36.436Z,27.79
2023-05-19T10:57:36.243Z,27.75
2023-05-19T10:58:36.244Z,27.70
2023-05-19T10:59:36.210Z,27.66
2023-05-19T11:00:36.216Z,27.69
2023-05-19T11:01:36.291Z,27.61
2023-05-19T11:02:36.355Z,27.64
2023-05-19T11:03:36.310Z,27.63
2023-05-19T11:04:36.325Z,27.64
2023-05-19T11:05:36.387Z,27.56
2023-05-19T11:06:36.415Z,27.56
2023-05-19T11:07:36.425Z,27.59
2023-05-19T11:08:36.403Z,27.57
2023-05-19T11:09:40.573Z,27.54
2023-05-19T11:10:36.422Z,27.53
2023-05-19T11:11:36.392Z,27.49
2023-05-19T11:12:36.404Z,27.47
2023-05-19T11:13:36.716Z,27.49
2023-05-19T11:14:36.383Z,27.46
2023-05-19T11:15:36.393Z,27.44
2023-05-19T11:16:36.422Z,27.46
2023-05-19T11:17:36.376Z,27.46
2023-05-19T11:18:36.352Z,27.69
2023-05-19T11:19:36.356Z,27.79
2023-05-19T11:20:36.419Z,27.93
2023-05-19T11:21:36.381Z,28.00
2023-05-19T11:22:36.330Z,28.07
2023-05-19T11:23:36.339Z,28.18
2023-05-19T11:24:36.341Z,28.31
2023-05-19T11:25:36.300Z,28.33
2023-05-19T11:26:36.308Z,28.45
2023-05-19T11:27:36.316Z,28.46
2023-05-19T11:28:36.289Z,28.52
2023-05-19T11:29:36.277Z,28.61
2023-05-19T11:30:36.270Z,28.64
2023-05-19T11:31:36.337Z,28.70
2023-05-19T11:32:36.383Z,28.65
2023-05-19T11:33:36.339Z,28.67
2023-05-19T11:34:36.320Z,28.72
2023-05-19T11:35:36.648Z,28.79
2023-05-19T11:36:36.445Z,28.78
2023-05-19T11:37:36.587Z,28.80
2023-05-19T11:38:36.573Z,28.79
2023-05-19T11:39:36.562Z,28.82
2023-05-19T11:40:36.582Z,28.82
2023-05-19T11:41:37.336Z,28.86
2023-05-19T11:42:36.652Z,28.94
2023-05-19T11:43:36.676Z,28.88
2023-05-19T11:44:36.714Z,28.90
2023-05-19T11:45:36.848Z,28.95
2023-05-19T11:46:36.877Z,28.95
2023-05-19T11:47:50.923Z,28.98
2023-05-19T11:48:37.955Z,28.98
2023-05-19T11:49:36.963Z,29.02
2023-05-19T11:50:36.865Z,29.04
2023-05-19T11:51:36.852Z,29.04
2023-05-19T11:52:36.865Z,29.05
2023-05-19T11:53:36.862Z,29.03
2023-05-19T11:54:36.828Z,29.06
2023-05-19T11:55:36.843Z,29.09
2023-05-19T11:56:36.821Z,29.14
2023-05-19T11:57:36.820Z,29.05
2023-05-19T11:58:36.819Z,29.15
2023-05-19T11:59:36.827Z,29.20
2023-05-19T12:00:36.793Z,29.16
2023-05-19T12:01:36.809Z,29.20
2023-05-19T12:02:36.838Z,29.02
2023-05-19T12:03:36.945Z,28.94
2023-05-19T12:04:36.776Z,28.89
2023-05-19T12:05:40.827Z,28.79
2023-05-19T12:06:37.896Z,28.71
2023-05-19T12:07:36.750Z,28.68
2023-05-19T12:08:36.745Z,28.63
2023-05-19T12:09:36.751Z,28.62
2023-05-19T12:10:36.746Z,28.53
2023-05-19T12:11:36.726Z,28.48
2023-05-19T12:12:36.728Z,28.47
2023-05-19T12:13:36.721Z,28.47
2023-05-19T12:14:36.711Z,28.41
2023-05-19T12:15:36.749Z,28.37
2023-05-19T12:16:36.770Z,28.36
2023-05-19T12:17:36.765Z,28.35
2023-05-19T12:18:36.673Z,28.32
2023-05-19T12:19:36.672Z,28.28
2023-05-19T12:20:36.672Z,28.34
2023-05-19T12:21:36.704Z,28.34
2023-05-19T12:22:36.653Z,28.29
2023-05-19T12:23:36.701Z,28.27
2023-05-19T12:24:36.735Z,28.30
2023-05-19T12:25:36.900Z,28.36
2023-05-19T12:26:36.766Z,28.27
2023-05-19T12:27:36.792Z,28.30
2023-05-19T12:28:36.803Z,28.29
2023-05-19T12:29:36.823Z,28.33
2023-05-19T12:30:37.013Z,28.29
2023-05-19T12:31:36.854Z,28.26
2023-05-19T12:32:36.883Z,28.33
2023-05-19T12:33:36.868Z,28.37
2023-05-19T12:34:36.911Z,28.33
2023-05-19T12:35:36.980Z,28.32
2023-05-19T12:36:37.006Z,28.38
2023-05-19T12:37:37.017Z,28.35
2023-05-19T12:38:37.010Z,28.36
2023-05-19T12:39:37.010Z,28.38
2023-05-19T12:40:37.319Z,28.35
2023-05-19T12:41:37.002Z,28.45
2023-05-19T12:42:37.009Z,28.37
2023-05-19T12:43:37.011Z,28.37
2023-05-19T12:44:37.035Z,28.38
2023-05-19T12:45:37.367Z,28.34
2023-05-19T12:46:37.127Z,28.35
2023-05-19T12:47:37.251Z,28.45
2023-05-19T12:48:37.244Z,28.41
2023-05-19T12:49:37.259Z,28.44
2023-05-19T12:50:37.387Z,28.41
2023-05-19T12:51:37.264Z,28.48
2023-05-19T12:52:37.253Z,28.43